createdAt,value
2023-05-01T00:00:15.224Z,62.32
2023-05-01T00:02:44.438Z,62.61
2023-05-01T00:05:17.715Z,62.28
2023-05-01T00:07:46.944Z,62.91
2023-05-01T00:10:15.154Z,62.34
2023-05-01T00:12:43.700Z,61.96
2023-05-01T00:15:13.331Z,62.33
2023-05-01T00:17:43.506Z,63.64
2023-05-01T00:20:14.776Z,63.00
2023-05-01T00:22:43.166Z,63.71
2023-05-01T00:25:11.668Z,64.24
2023-05-01T00:27:39.973Z,64.01
2023-05-01T00:30:11.463Z,63.99
2023-05-01T00:32:40.980Z,64.30
2023-05-01T00:35:09.897Z,63.53
2023-05-01T00:37:38.434Z,63.49
2023-05-01T00:40:08.943Z,63.35
2023-05-01T00:42:41.509Z,63.86
2023-05-01T00:45:11.858Z,65.15
2023-05-01T00:47:44.319Z,65.00
2023-05-01T00:50:20.481Z,64.39
2023-05-01T00:52:49.089Z,65.20
2023-05-01T00:55:18.352Z,66.37
2023-05-01T00:57:48.591Z,66.65
2023-05-01T01:00:20.604Z,65.55
2023-05-01T01:02:50.599Z,65.17
2023-05-01T01:05:22.830Z,66.25
2023-05-01T01:07:59.498Z,65.64
2023-05-01T01:10:37.305Z,66.10
2023-05-01T01:13:13.115Z,65.50
2023-05-01T01:15:47.020Z,65.92
2023-05-01T01:18:23.643Z,65.83
2023-05-01T01:20:59.972Z,65.33
2023-05-01T01:24:12.311Z,65.63
2023-05-01T01:29:58.010Z,65.10
2023-05-01T01:32:52.174Z,66.69
2023-05-01T01:35:26.891Z,66.06
2023-05-01T01:38:01.969Z,66.56
2023-05-01T01:40:35.922Z,68.24
2023-05-01T01:43:07.829Z,67.79
2023-05-01T01:45:43.657Z,67.42
2023-05-01T01:48:17.603Z,67.77
2023-05-01T01:50:48.548Z,67.33
2023-05-01T01:53:19.469Z,66.97
2023-05-01T01:55:49.810Z,67.03
2023-05-01T01:58:24.864Z,67.80
2023-05-01T02:00:54.394Z,67.71
2023-05-01T02:03:25.116Z,68.57
2023-05-01T02:05:57.786Z,69.02
2023-05-01T02:08:27.644Z,69.34
2023-05-01T02:11:01.700Z,69.14
2023-05-01T02:13:32.624Z,69.84
2023-05-01T02:16:04.723Z,70.60
2023-05-01T02:18:33.993Z,71.00
2023-05-01T02:21:04.527Z,70.52
2023-05-01T02:23:34.095Z,70.80
2023-05-01T02:26:05.619Z,72.24
2023-05-01T02:28:35.870Z,71.26
2023-05-01T02:31:03.880Z,70.86
2023-05-01T02:33:33.463Z,72.04
2023-05-01T02:36:02.481Z,70.79
2023-05-01T02:38:32.071Z,72.72
2023-05-01T02:41:03.356Z,73.09
2023-05-01T02:43:34.245Z,72.93
2023-05-01T02:46:04.686Z,73.47
2023-05-01T02:48:34.316Z,74.42
2023-05-01T02:51:03.558Z,74.25
2023-05-01T02:53:34.380Z,74.54
2023-05-01T02:56:04.591Z,75.98
2023-05-01T02:58:33.734Z,74.92
2023-05-01T03:01:01.847Z,74.83
2023-05-01T03:03:30.082Z,74.81
2023-05-01T03:05:58.540Z,75.70
2023-05-01T03:08:26.771Z,74.31
2023-05-01T03:10:56.041Z,74.88
2023-05-01T03:13:24.469Z,75.84
2023-05-01T03:15:55.147Z,75.84
2023-05-01T03:18:23.472Z,74.63
2023-05-01T03:20:55.876Z,75.77
2023-05-01T03:23:24.698Z,74.89
2023-05-01T03:25:54.733Z,74.12
2023-05-01T03:28:25.683Z,74.55
2023-05-01T03:30:53.804Z,75.69
2023-05-01T03:33:22.956Z,76.01
2023-05-01T03:36:03.986Z,73.82
2023-05-01T03:38:32.345Z,75.64
2023-05-01T03:41:01.173Z,75.09
2023-05-01T03:43:31.337Z,76.35
2023-05-01T03:45:59.713Z,75.68
2023-05-01T03:48:27.606Z,75.02
2023-05-01T03:50:57.950Z,74.31
2023-05-01T03:53:27.467Z,74.70
2023-05-01T03:55:55.620Z,75.11
2023-05-01T03:58:23.767Z,75.48
2023-05-01T04:00:53.035Z,76.25
2023-05-01T04:03:22.341Z,76.11
2023-05-01T04:05:50.417Z,76.67
2023-05-01T04:08:18.196Z,77.37
2023-05-01T04:10:46.128Z,77.82
2023-05-01T04:13:14.253Z,78.51
2023-05-01T04:15:47.412Z,77.69
2023-05-01T04:18:16.827Z,78.00
2023-05-01T04:20:45.798Z,78.66
2023-05-01T04:23:15.544Z,77.81
2023-05-01T04:25:44.223Z,78.06
2023-05-01T04:28:14.952Z,78.42
2023-05-01T04:30:45.238Z,78.62
2023-05-01T04:33:13.097Z,79.04
2023-05-01T04:35:43.044Z,79.11
2023-05-01T04:38:11.078Z,78.44
2023-05-01T04:40:39.251Z,77.57
2023-05-01T04:43:09.656Z,77.52
2023-05-01T04:45:39.230Z,77.32
2023-05-01T04:48:07.790Z,77.67
2023-05-01T04:50:35.695Z,77.49
2023-05-01T04:53:05.275Z,77.62
2023-05-01T04:55:33.144Z,77.09
2023-05-01T04:58:03.601Z,78.03
2023-05-01T05:00:31.699Z,76.57
2023-05-01T05:03:01.555Z,74.93
2023-05-01T05:05:30.889Z,74.50
2023-05-01T05:07:59.888Z,73.11
2023-05-01T05:10:30.090Z,72.60
2023-05-01T05:13:00.728Z,71.58
2023-05-01T05:15:28.802Z,71.98
2023-05-01T05:17:58.098Z,71.14
2023-05-01T05:20:26.831Z,71.79
2023-05-01T05:22:54.866Z,70.99
2023-05-01T05:25:23.011Z,70.30
2023-05-01T05:27:54.501Z,70.95
2023-05-01T05:30:22.590Z,70.95
2023-05-01T05:32:50.585Z,70.03
2023-05-01T05:35:22.734Z,70.21
2023-05-01T05:37:50.661Z,69.49
2023-05-01T05:40:20.906Z,70.48
2023-05-01T05:42:48.904Z,70.70
2023-05-01T05:45:20.405Z,68.74
2023-05-01T05:47:48.668Z,66.87
2023-05-01T05:50:17.709Z,66.82
2023-05-01T05:52:45.784Z,67.91
2023-05-01T05:55:13.479Z,65.02
2023-05-01T05:57:41.521Z,64.45
2023-05-01T06:00:10.687Z,64.98
2023-05-01T06:02:40.496Z,65.24
2023-05-01T06:05:10.785Z,63.46
2023-05-01T06:07:39.887Z,62.37
2023-05-01T06:10:08.733Z,63.93
2023-05-01T06:12:40.549Z,63.29
2023-05-01T06:15:15.551Z,61.73
2023-05-01T06:17:45.776Z,63.05
2023-05-01T06:20:14.894Z,61.33
2023-05-01T06:22:43.049Z,61.24
2023-05-01T06:25:11.563Z,60.16
2023-05-01T06:27:40.186Z,60.65
2023-05-01T06:30:10.852Z,60.82
2023-05-01T06:32:42.133Z,61.04
2023-05-01T06:35:11.704Z,60.16
2023-05-01T06:37:40.142Z,61.43
2023-05-01T06:40:12.101Z,61.00
2023-05-01T06:42:40.767Z,58.56
2023-05-01T06:45:09.841Z,60.46
2023-05-01T06:47:39.510Z,58.72
2023-05-01T06:50:09.417Z,57.13
2023-05-01T06:52:38.853Z,56.65
2023-05-01T06:55:07.535Z,58.23
2023-05-01T06:57:35.934Z,58.10
2023-05-01T07:00:04.545Z,57.14
2023-05-01T07:02:32.988Z,56.98
2023-05-01T07:05:01.181Z,57.44
2023-05-01T07:07:30.986Z,56.61
2023-05-01T07:10:00.598Z,56.27
2023-05-01T07:12:30.728Z,56.58
2023-05-01T07:14:59.132Z,55.63
2023-05-01T07:17:28.389Z,55.69
2023-05-01T07:19:57.319Z,56.20
2023-05-01T07:22:26.079Z,54.87
2023-05-01T07:24:57.692Z,53.69
2023-05-01T07:27:28.991Z,53.57
2023-05-01T07:29:58.514Z,52.76
2023-05-01T07:32:26.527Z,52.57
2023-05-01T07:34:55.793Z,54.00
2023-05-01T07:37:24.547Z,52.65
2023-05-01T07:39:53.145Z,50.57
2023-05-01T07:42:28.389Z,51.92
2023-05-01T07:44:57.944Z,50.78
2023-05-01T07:47:28.895Z,48.38
2023-05-01T07:49:57.263Z,48.83
2023-05-01T07:52:26.209Z,47.95
2023-05-01T07:54:56.056Z,47.16
2023-05-01T07:57:26.274Z,49.29
2023-05-01T07:59:57.582Z,46.52
2023-05-01T08:02:26.672Z,46.18
2023-05-01T08:04:54.941Z,49.35
2023-05-01T08:07:23.279Z,49.50
2023-05-01T08:09:51.113Z,49.44
2023-05-01T08:12:18.900Z,46.99
2023-05-01T08:14:46.822Z,47.89
2023-05-01T08:17:17.044Z,48.05
2023-05-01T08:19:45.810Z,48.27
2023-05-01T08:22:14.258Z,49.34
2023-05-01T08:24:42.767Z,48.72
2023-05-01T08:27:13.654Z,49.35
2023-05-01T08:29:42.666Z,48.19
2023-05-01T08:32:10.689Z,48.06
2023-05-01T08:34:42.244Z,48.82
2023-05-01T08:37:34.743Z,48.79
2023-05-01T08:40:08.214Z,49.61
2023-05-01T08:42:38.865Z,49.05
2023-05-01T08:45:10.066Z,48.06
2023-05-01T08:47:42.485Z,48.77
2023-05-01T08:50:12.832Z,47.89
2023-05-01T08:52:45.715Z,47.60
2023-05-01T08:55:16.159Z,49.26
2023-05-01T08:57:49.271Z,47.12
2023-05-01T09:00:20.978Z,46.07
2023-05-01T09:02:52.126Z,44.52
2023-05-01T09:05:22.551Z,43.52
2023-05-01T09:07:51.368Z,44.66
2023-05-01T09:10:24.386Z,47.29
2023-05-01T09:12:57.360Z,46.68
2023-05-01T09:15:28.133Z,47.47
2023-05-01T09:18:02.966Z,47.12
2023-05-01T09:20:37.308Z,46.79
2023-05-01T09:23:06.484Z,46.07
2023-05-01T09:25:47.302Z,45.26
2023-05-01T09:28:17.098Z,46.94
2023-05-01T09:30:50.996Z,46.23
2023-05-01T09:33:20.751Z,46.94
2023-05-01T09:35:55.433Z,44.13
2023-05-01T09:38:29.024Z,45.14
2023-05-01T09:41:07.880Z,45.26
2023-05-01T09:43:35.887Z,46.24
2023-05-01T09:46:09.535Z,46.01
2023-05-01T09:48:38.911Z,46.65
2023-05-01T09:51:27.121Z,43.55
2023-05-01T09:53:57.378Z,45.06
2023-05-01T09:56:31.388Z,43.79
2023-05-01T09:59:20.187Z,43.63
2023-05-01T10:01:51.206Z,44.94
2023-05-01T10:04:38.627Z,41.76
2023-05-01T10:07:22.830Z,40.80
2023-05-01T10:09:53.952Z,42.60
2023-05-01T10:12:26.375Z,43.73
2023-05-01T10:14:56.222Z,43.44
2023-05-01T10:17:24.776Z,42.90
2023-05-01T10:19:53.129Z,42.99
2023-05-01T10:22:24.666Z,43.71
2023-05-01T10:24:53.113Z,42.52
2023-05-01T10:27:30.518Z,43.05
2023-05-01T10:30:07.365Z,42.43
2023-05-01T10:32:37.684Z,40.46
2023-05-01T10:35:11.468Z,41.50
2023-05-01T10:37:56.176Z,42.07
2023-05-01T10:40:47.496Z,41.60
2023-05-01T10:43:17.408Z,40.53
2023-05-01T10:45:47.934Z,41.00
2023-05-01T10:48:56.888Z,42.03
2023-05-01T10:51:28.709Z,38.25
2023-05-01T10:54:30.402Z,39.75
2023-05-01T10:57:02.039Z,39.41
2023-05-01T11:00:05.667Z,41.42
2023-05-01T11:02:34.736Z,41.30
2023-05-01T11:05:05.596Z,40.26
2023-05-01T11:07:35.644Z,37.90
2023-05-01T11:10:27.007Z,39.16
2023-05-01T11:12:55.889Z,40.47
2023-05-01T11:15:33.375Z,39.43
2023-05-01T11:18:01.862Z,38.95
2023-05-01T11:21:03.842Z,39.03
2023-05-01T11:23:52.743Z,39.35
2023-05-01T11:26:32.752Z,38.82
2023-05-01T11:29:05.291Z,39.21
2023-05-01T11:31:34.356Z,38.43
2023-05-01T11:34:07.362Z,39.26
2023-05-01T11:36:50.683Z,39.41
2023-05-01T11:39:29.722Z,39.83
2023-05-01T11:42:10.626Z,39.27
2023-05-01T11:44:41.836Z,38.46
2023-05-01T11:47:12.335Z,37.25
2023-05-01T11:49:40.840Z,39.64
2023-05-01T11:52:10.199Z,39.27
2023-05-01T11:54:49.115Z,39.20
2023-05-01T11:57:20.203Z,37.84
2023-05-01T11:59:49.350Z,37.27
2023-05-01T12:02:21.677Z,37.43
2023-05-01T12:04:51.539Z,38.43
2023-05-01T12:07:25.470Z,38.70
2023-05-01T12:09:57.166Z,38.75
2023-05-01T12:12:27.666Z,37.30
2023-05-01T12:15:00.258Z,38.10
2023-05-01T12:17:30.882Z,36.74
2023-05-01T12:19:58.988Z,37.70
2023-05-01T12:22:29.824Z,37.78
2023-05-01T12:25:00.862Z,37.33
2023-05-01T12:27:30.732Z,38.30
2023-05-01T12:30:00.432Z,38.19
2023-05-01T12:32:34.756Z,36.83
2023-05-01T12:35:14.571Z,37.64
2023-05-01T12:37:42.488Z,35.89
2023-05-01T12:40:14.824Z,36.61
2023-05-01T12:42:44.707Z,37.73
2023-05-01T12:45:15.104Z,37.05
2023-05-01T12:47:43.457Z,35.25
2023-05-01T12:50:11.983Z,35.50
2023-05-01T12:52:42.284Z,36.16
2023-05-01T12:55:12.522Z,36.44
2023-05-01T12:57:54.903Z,36.24
2023-05-01T13:00:23.238Z,35.49
2023-05-01T13:02:51.850Z,36.56
2023-05-01T13:05:20.826Z,36.20
2023-05-01T13:07:52.036Z,34.74
2023-05-01T13:10:32.469Z,36.21
2023-05-01T13:13:05.041Z,36.05
2023-05-01T13:15:34.522Z,35.51
2023-05-01T13:18:05.450Z,36.18
2023-05-01T13:20:39.211Z,36.02
2023-05-01T13:23:11.898Z,37.03
2023-05-01T13:25:40.743Z,36.15
2023-05-01T13:28:11.822Z,35.51
2023-05-01T13:30:39.941Z,34.94
2023-05-01T13:33:12.179Z,33.47
2023-05-01T13:35:43.456Z,33.98
2023-05-01T13:38:15.111Z,33.20
2023-05-01T13:40:43.537Z,32.60
2023-05-01T13:43:17.589Z,34.88
2023-05-01T13:45:47.289Z,33.07
2023-05-01T13:48:20.268Z,34.02
2023-05-01T13:50:48.564Z,33.85
2023-05-01T13:53:19.955Z,34.61
2023-05-01T13:55:52.316Z,32.49
2023-05-01T13:58:21.886Z,33.42
2023-05-01T14:00:49.893Z,34.31
2023-05-01T14:03:22.196Z,33.22
2023-05-01T14:05:50.470Z,33.08
2023-05-01T14:08:22.515Z,35.36
2023-05-01T14:10:53.636Z,34.55
2023-05-01T14:13:23.280Z,35.00
2023-05-01T14:15:53.249Z,35.28
2023-05-01T14:18:22.717Z,36.51
2023-05-01T14:20:51.362Z,36.07
2023-05-01T14:23:22.959Z,35.40
2023-05-01T14:25:54.873Z,33.02
2023-05-01T14:28:27.789Z,34.22
2023-05-01T14:30:58.766Z,34.77
2023-05-01T14:33:27.530Z,34.03
2023-05-01T14:35:58.691Z,35.31
2023-05-01T14:38:27.892Z,36.22
2023-05-01T14:40:56.559Z,37.04
2023-05-01T14:43:31.851Z,36.52
2023-05-01T14:46:00.999Z,36.17
2023-05-01T14:48:38.057Z,34.66
2023-05-01T14:51:10.862Z,35.83
2023-05-01T14:53:43.994Z,36.11
2023-05-01T14:56:18.480Z,37.19
2023-05-01T14:58:50.645Z,35.62
2023-05-01T15:01:24.405Z,35.26
2023-05-01T15:03:54.556Z,36.22
2023-05-01T15:06:25.059Z,36.58
2023-05-01T15:08:53.839Z,37.63
2023-05-01T15:11:22.122Z,37.27
2023-05-01T15:13:52.681Z,36.86
2023-05-01T15:16:20.664Z,36.83
2023-05-01T15:18:49.530Z,37.64
2023-05-01T15:21:18.274Z,36.09
2023-05-01T15:23:46.238Z,36.27
2023-05-01T15:26:14.263Z,35.79
2023-05-01T15:28:42.557Z,37.12
2023-05-01T15:31:12.674Z,36.69
2023-05-01T15:33:41.423Z,36.11
2023-05-01T15:36:10.919Z,36.82
2023-05-01T15:38:40.799Z,37.15
2023-05-01T15:41:11.500Z,38.71
2023-05-01T15:43:41.073Z,38.40
2023-05-01T15:46:09.292Z,38.54
2023-05-01T15:48:38.617Z,38.66
2023-05-01T15:51:06.585Z,37.66
2023-05-01T15:53:34.746Z,37.66
2023-05-01T15:56:03.832Z,37.62
2023-05-01T15:58:32.203Z,37.50
2023-05-01T16:01:00.741Z,37.53
2023-05-01T16:03:29.606Z,37.24
2023-05-01T16:06:00.331Z,36.55
2023-05-01T16:08:28.853Z,37.95
2023-05-01T16:10:58.369Z,38.80
2023-05-01T16:13:26.674Z,37.27
2023-05-01T16:15:54.687Z,37.21
2023-05-01T16:18:26.309Z,37.21
2023-05-01T16:20:58.066Z,36.88
2023-05-01T16:23:35.685Z,36.66
2023-05-01T16:26:07.233Z,36.44
2023-05-01T16:28:36.836Z,36.35
2023-05-01T16:31:19.665Z,37.21
2023-05-01T16:33:57.156Z,37.28
2023-05-01T16:36:25.176Z,38.78
2023-05-01T16:38:55.759Z,38.02
2023-05-01T16:41:24.215Z,39.29
2023-05-01T16:43:52.677Z,38.62
2023-05-01T16:46:21.820Z,39.39
2023-05-01T16:48:50.312Z,39.37
2023-05-01T16:51:22.615Z,40.17
2023-05-01T16:53:50.475Z,39.37
2023-05-01T16:56:21.749Z,39.32
2023-05-01T16:58:49.541Z,39.08
2023-05-01T17:01:19.047Z,39.59
2023-05-01T17:03:47.961Z,40.18
2023-05-01T17:06:16.945Z,39.64
2023-05-01T17:08:45.092Z,39.72
2023-05-01T17:11:15.930Z,41.11
2023-05-01T17:13:45.489Z,41.16
2023-05-01T17:16:13.716Z,41.26
2023-05-01T17:18:43.244Z,40.76
2023-05-01T17:21:11.333Z,40.99
2023-05-01T17:23:39.583Z,41.15
2023-05-01T17:26:07.819Z,41.82
2023-05-01T17:28:35.856Z,41.76
2023-05-01T17:31:05.424Z,42.18
2023-05-01T17:33:33.654Z,42.78
2023-05-01T17:36:03.273Z,43.39
2023-05-01T17:38:31.615Z,43.37
2023-05-01T17:40:59.782Z,43.63
2023-05-01T17:43:27.985Z,44.06
2023-05-01T17:45:56.273Z,43.41
2023-05-01T17:48:27.120Z,43.78
2023-05-01T17:50:55.789Z,44.07
2023-05-01T17:53:30.723Z,43.83
2023-05-01T17:55:58.552Z,45.61
2023-05-01T17:58:26.995Z,47.08
2023-05-01T18:00:58.260Z,46.47
2023-05-01T18:03:29.190Z,45.82
2023-05-01T18:06:01.725Z,45.77
2023-05-01T18:08:30.991Z,43.86
2023-05-01T18:10:58.798Z,45.34
2023-05-01T18:13:28.308Z,44.70
2023-05-01T18:15:57.275Z,46.75
2023-05-01T18:18:25.773Z,46.82
2023-05-01T18:20:55.539Z,46.32
2023-05-01T18:23:25.149Z,48.72
2023-05-01T18:25:53.494Z,47.08
2023-05-01T18:28:21.517Z,49.32
2023-05-01T18:30:49.914Z,49.64
2023-05-01T18:33:18.251Z,50.08
2023-05-01T18:35:46.676Z,49.96
2023-05-01T18:38:17.712Z,48.29
2023-05-01T18:40:49.948Z,47.39
2023-05-01T18:43:17.926Z,46.98
2023-05-01T18:45:47.733Z,47.11
2023-05-01T18:48:16.100Z,46.69
2023-05-01T18:50:54.063Z,47.54
2023-05-01T18:53:27.400Z,49.03
2023-05-01T18:55:55.495Z,49.06
2023-05-01T18:58:23.821Z,49.63
2023-05-01T19:00:52.220Z,51.97
2023-05-01T19:03:20.376Z,51.59
2023-05-01T19:05:49.518Z,53.36
2023-05-01T19:08:18.179Z,54.69
2023-05-01T19:10:54.540Z,55.38
2023-05-01T19:13:22.558Z,52.42
2023-05-01T19:15:50.369Z,50.74
2023-05-01T19:18:18.391Z,51.60
2023-05-01T19:20:47.799Z,53.08
2023-05-01T19:23:15.693Z,51.03
2023-05-01T19:25:43.557Z,51.39
2023-05-01T19:28:13.991Z,52.00
2023-05-01T19:30:45.003Z,53.63
2023-05-01T19:33:14.855Z,52.27
2023-05-01T19:35:44.237Z,52.22
2023-05-01T19:38:14.057Z,52.71
2023-05-01T19:40:44.775Z,53.50
2023-05-01T19:43:14.179Z,53.18
2023-05-01T19:45:42.196Z,53.64
2023-05-01T19:48:10.486Z,53.10
2023-05-01T19:50:38.636Z,54.32
2023-05-01T19:53:07.979Z,54.25
2023-05-01T19:55:37.160Z,53.69
2023-05-01T19:58:10.921Z,53.50
2023-05-01T20:00:41.023Z,53.41
2023-05-01T20:03:11.025Z,54.22
2023-05-01T20:05:42.047Z,53.44
2023-05-01T20:08:10.272Z,53.40
2023-05-01T20:10:41.598Z,54.83
2023-05-01T20:13:13.218Z,54.72
2023-05-01T20:15:43.357Z,54.83
2023-05-01T20:18:13.270Z,55.30
2023-05-01T20:20:42.358Z,55.79
2023-05-01T20:23:11.290Z,56.01
2023-05-01T20:25:42.297Z,56.92
2023-05-01T20:28:12.778Z,57.38
2023-05-01T20:30:44.259Z,57.82
2023-05-01T20:33:13.963Z,57.25
2023-05-01T20:35:43.013Z,57.62
2023-05-01T20:38:11.171Z,58.31
2023-05-01T20:40:41.005Z,58.04
2023-05-01T20:43:09.384Z,58.04
2023-05-01T20:45:40.226Z,58.88
2023-05-01T20:48:09.935Z,59.03
2023-05-01T20:50:38.200Z,59.09
2023-05-01T20:53:06.788Z,59.25
2023-05-01T20:55:35.229Z,59.46
2023-05-01T20:58:03.512Z,59.38
2023-05-01T21:00:33.915Z,59.91
2023-05-01T21:03:02.735Z,59.65
2023-05-01T21:05:34.797Z,60.14
2023-05-01T21:08:03.472Z,60.72
2023-05-01T21:10:32.748Z,60.59
2023-05-01T21:13:01.621Z,60.83
2023-05-01T21:15:33.842Z,60.81
2023-05-01T21:18:02.776Z,59.95
2023-05-01T21:20:33.856Z,60.42
2023-05-01T21:23:02.405Z,60.25
2023-05-01T21:25:31.980Z,59.78
2023-05-01T21:28:02.153Z,59.79
2023-05-01T21:30:33.384Z,59.40
2023-05-01T21:33:05.324Z,59.31
2023-05-01T21:35:35.301Z,58.98
2023-05-01T21:38:05.789Z,58.52
2023-05-01T21:40:37.654Z,58.12
2023-05-01T21:43:08.607Z,57.73
2023-05-01T21:45:40.403Z,57.84
2023-05-01T21:48:09.464Z,57.61
2023-05-01T21:50:39.076Z,57.97
2023-05-01T21:53:08.051Z,61.18
2023-05-01T21:55:38.165Z,62.38
2023-05-01T21:58:06.180Z,62.75
2023-05-01T22:00:35.845Z,62.73
2023-05-01T22:03:08.769Z,62.28
2023-05-01T22:05:40.965Z,61.80
2023-05-01T22:08:11.996Z,62.08
2023-05-01T22:10:42.024Z,61.64
2023-05-01T22:13:13.880Z,60.91
2023-05-01T22:15:43.274Z,60.77
2023-05-01T22:18:11.339Z,60.41
2023-05-01T22:20:40.706Z,59.91
2023-05-01T22:23:09.240Z,60.38
2023-05-01T22:25:44.522Z,60.84
2023-05-01T22:28:13.054Z,60.97
2023-05-01T22:30:41.781Z,61.30
2023-05-01T22:33:10.146Z,61.27
2023-05-01T22:35:38.114Z,62.11
2023-05-01T22:38:08.187Z,61.80
2023-05-01T22:40:36.024Z,59.49
2023-05-01T22:43:05.443Z,58.17
2023-05-01T22:45:34.918Z,59.13
2023-05-01T22:48:03.109Z,61.29
2023-05-01T22:50:32.225Z,61.84
2023-05-01T22:53:01.512Z,61.78
2023-05-01T22:55:31.829Z,61.14
2023-05-01T22:58:00.028Z,61.98
2023-05-01T23:00:28.129Z,62.17
2023-05-01T23:02:56.892Z,64.23
2023-05-01T23:05:25.290Z,63.82
2023-05-01T23:07:53.024Z,64.31
2023-05-01T23:10:25.697Z,63.78
2023-05-01T23:12:57.807Z,63.05
2023-05-01T23:15:27.029Z,62.43
2023-05-01T23:17:57.188Z,61.82
2023-05-01T23:20:26.185Z,62.48
2023-05-01T23:22:55.177Z,61.94
2023-05-01T23:25:25.806Z,60.64
2023-05-01T23:27:56.926Z,60.26
2023-05-01T23:30:26.426Z,60.46
2023-05-01T23:32:59.195Z,60.71
2023-05-01T23:35:27.457Z,61.65
2023-05-01T23:37:57.354Z,61.40
2023-05-01T23:40:26.804Z,62.04
2023-05-01T23:42:56.226Z,62.87
2023-05-01T23:45:24.024Z,63.86
2023-05-01T23:47:52.283Z,64.99
2023-05-01T23:50:25.250Z,64.92
2023-05-01T23:52:53.413Z,65.38
2023-05-01T23:55:21.797Z,65.60
2023-05-01T23:57:50.885Z,65.49
